sensor_id;sensor_type;location;lat;lon;timestamp;pressure;altitude;pressure_sealevel;temperature;humidity
61528;BME280;47395;42.032;-8.634;2023-02-15T00:01:46;101590.63;;;11.02;65.91
61528;BME280;47395;42.032;-8.634;2023-02-15T00:03:54;101590.75;;;10.99;66.08
61528;BME280;47395;42.032;-8.634;2023-02-15T00:05:56;101588.25;;;10.94;66.33
61528;BME280;47395;42.032;-8.634;2023-02-15T00:07:57;101588.50;;;10.88;66.43
61528;BME280;47395;42.032;-8.634;2023-02-15T00:09:58;101587.63;;;10.87;66.64
61528;BME280;47395;42.032;-8.634;2023-02-15T00:11:59;101588.50;;;10.88;66.32
61528;BME280;47395;42.032;-8.634;2023-02-15T00:14:02;101586.69;;;10.88;67.04
61528;BME280;47395;42.032;-8.634;2023-02-15T00:16:04;101590.13;;;10.92;67.01
61528;BME280;47395;42.032;-8.634;2023-02-15T00:18:06;101591.94;;;10.90;67.50
61528;BME280;47395;42.032;-8.634;2023-02-15T00:20:07;101590.63;;;11.02;67.32
61528;BME280;47395;42.032;-8.634;2023-02-15T00:22:10;101600.41;;;11.22;66.90
61528;BME280;47395;42.032;-8.634;2023-02-15T00:24:12;101607.78;;;11.38;66.74
61528;BME280;47395;42.032;-8.634;2023-02-15T00:26:16;101596.06;;;11.45;66.01
61528;BME280;47395;42.032;-8.634;2023-02-15T00:28:18;101598.56;;;11.48;65.43
61528;BME280;47395;42.032;-8.634;2023-02-15T00:30:21;101602.75;;;11.54;65.72
61528;BME280;47395;42.032;-8.634;2023-02-15T00:32:22;101602.88;;;11.51;65.32
61528;BME280;47395;42.032;-8.634;2023-02-15T00:34:25;101596.69;;;11.52;65.47
61528;BME280;47395;42.032;-8.634;2023-02-15T00:36:26;101606.94;;;11.35;65.29
61528;BME280;47395;42.032;-8.634;2023-02-15T00:38:27;101602.16;;;11.23;66.40
61528;BME280;47395;42.032;-8.634;2023-02-15T00:40:29;101606.78;;;11.40;65.47
61528;BME280;47395;42.032;-8.634;2023-02-15T00:42:31;101602.19;;;11.45;65.37
61528;BME280;47395;42.032;-8.634;2023-02-15T00:46:34;101605.09;;;11.61;65.20
61528;BME280;47395;42.032;-8.634;2023-02-15T00:48:35;101607.72;;;11.61;64.90
61528;BME280;47395;42.032;-8.634;2023-02-15T00:50:40;101605.22;;;11.58;64.34
61528;BME280;47395;42.032;-8.634;2023-02-15T00:52:41;101608.50;;;11.65;64.76
61528;BME280;47395;42.032;-8.634;2023-02-15T00:54:43;101606.59;;;11.69;64.50
61528;BME280;47395;42.032;-8.634;2023-02-15T00:56:44;101606.94;;;11.59;63.92
61528;BME280;47395;42.032;-8.634;2023-02-15T00:58:44;101604.63;;;11.52;64.32
61528;BME280;47395;42.032;-8.634;2023-02-15T01:00:47;101606.69;;;11.43;64.54
61528;BME280;47395;42.032;-8.634;2023-02-15T01:02:48;101612.81;;;11.20;65.08
61528;BME280;47395;42.032;-8.634;2023-02-15T01:04:50;101617.56;;;11.10;65.32
61528;BME280;47395;42.032;-8.634;2023-02-15T01:06:51;101621.34;;;10.77;66.00
61528;BME280;47395;42.032;-8.634;2023-02-15T01:08:51;101622.84;;;10.61;66.55
61528;BME280;47395;42.032;-8.634;2023-02-15T01:10:53;101628.25;;;10.56;67.02
61528;BME280;47395;42.032;-8.634;2023-02-15T01:12:55;101631.16;;;10.48;67.18
61528;BME280;47395;42.032;-8.634;2023-02-15T01:15:00;101626.94;;;10.41;67.44
61528;BME280;47395;42.032;-8.634;2023-02-15T01:17:02;101630.88;;;10.29;67.79
61528;BME280;47395;42.032;-8.634;2023-02-15T01:19:05;101617.78;;;10.26;68.07
61528;BME280;47395;42.032;-8.634;2023-02-15T01:21:11;101625.56;;;10.30;68.25
61528;BME280;47395;42.032;-8.634;2023-02-15T01:23:14;101626.28;;;10.34;68.13
61528;BME280;47395;42.032;-8.634;2023-02-15T01:25:16;101609.38;;;10.41;68.06
61528;BME280;47395;42.032;-8.634;2023-02-15T01:27:17;101609.91;;;10.53;68.16
61528;BME280;47395;42.032;-8.634;2023-02-15T01:29:18;101606.19;;;10.58;68.19
61528;BME280;47395;42.032;-8.634;2023-02-15T01:31:20;101608.94;;;10.81;67.65
61528;BME280;47395;42.032;-8.634;2023-02-15T01:33:21;101606.63;;;10.97;66.94
61528;BME280;47395;42.032;-8.634;2023-02-15T01:35:22;101605.34;;;11.07;66.15
61528;BME280;47395;42.032;-8.634;2023-02-15T01:37:23;101610.28;;;11.17;66.21
61528;BME280;47395;42.032;-8.634;2023-02-15T01:39:24;101619.50;;;11.29;65.59
61528;BME280;47395;42.032;-8.634;2023-02-15T01:41:25;101614.47;;;11.22;65.36
61528;BME280;47395;42.032;-8.634;2023-02-15T01:43:43;101619.84;;;11.19;65.19
61528;BME280;47395;42.032;-8.634;2023-02-15T01:45:46;101614.53;;;11.21;65.56
61528;BME280;47395;42.032;-8.634;2023-02-15T01:47:53;101615.56;;;10.93;65.45
61528;BME280;47395;42.032;-8.634;2023-02-15T01:50:01;101618.38;;;10.87;66.35
61528;BME280;47395;42.032;-8.634;2023-02-15T01:52:04;101618.94;;;10.71;66.85
61528;BME280;47395;42.032;-8.634;2023-02-15T01:54:15;101616.13;;;10.76;67.43
61528;BME280;47395;42.032;-8.634;2023-02-15T01:56:23;101624.50;;;10.89;67.24
61528;BME280;47395;42.032;-8.634;2023-02-15T01:58:27;101622.25;;;11.02;66.34
61528;BME280;47395;42.032;-8.634;2023-02-15T02:00:29;101615.91;;;11.07;66.10
61528;BME280;47395;42.032;-8.634;2023-02-15T02:02:31;101621.75;;;11.16;66.00
61528;BME280;47395;42.032;-8.634;2023-02-15T02:04:59;101623.38;;;11.20;65.92
61528;BME280;47395;42.032;-8.634;2023-02-15T02:07:06;101617.91;;;11.25;65.32
61528;BME280;47395;42.032;-8.634;2023-02-15T02:09:07;101622.25;;;11.27;65.15
61528;BME280;47395;42.032;-8.634;2023-02-15T02:11:12;101620.13;;;11.35;65.05
61528;BME280;47395;42.032;-8.634;2023-02-15T02:13:13;101617.81;;;11.52;65.33
61528;BME280;47395;42.032;-8.634;2023-02-15T02:15:15;101619.47;;;11.30;64.34
61528;BME280;47395;42.032;-8.634;2023-02-15T02:17:47;101624.94;;;11.26;64.81
61528;BME280;47395;42.032;-8.634;2023-02-15T02:23:28;101624.97;;;10.75;65.53
61528;BME280;47395;42.032;-8.634;2023-02-15T02:38:28;101631.03;;;10.51;65.87
61528;BME280;47395;42.032;-8.634;2023-02-15T02:43:10;101633.28;;;10.35;66.05
61528;BME280;47395;42.032;-8.634;2023-02-15T02:45:27;101630.47;;;10.14;66.86
61528;BME280;47395;42.032;-8.634;2023-02-15T02:47:50;101635.25;;;10.01;67.89
61528;BME280;47395;42.032;-8.634;2023-02-15T02:50:04;101626.03;;;10.15;68.48
61528;BME280;47395;42.032;-8.634;2023-02-15T02:52:34;101637.09;;;10.26;68.63
61528;BME280;47395;42.032;-8.634;2023-02-15T02:54:30;101630.19;;;10.22;66.37
61528;BME280;47395;42.032;-8.634;2023-02-15T02:56:43;101630.13;;;10.25;66.53
61528;BME280;47395;42.032;-8.634;2023-02-15T03:01:42;101625.59;;;10.02;67.09
61528;BME280;47395;42.032;-8.634;2023-02-15T03:03:55;101629.47;;;9.90;67.16
61528;BME280;47395;42.032;-8.634;2023-02-15T03:06:04;101628.66;;;9.88;67.72
61528;BME280;47395;42.032;-8.634;2023-02-15T03:08:09;101633.09;;;9.86;67.45
61528;BME280;47395;42.032;-8.634;2023-02-15T03:10:18;101630.25;;;9.63;67.69
61528;BME280;47395;42.032;-8.634;2023-02-15T03:12:39;101627.88;;;9.56;68.22
61528;BME280;47395;42.032;-8.634;2023-02-15T03:14:52;101643.13;;;9.43;68.23
61528;BME280;47395;42.032;-8.634;2023-02-15T03:16:54;101634.00;;;9.26;69.14
61528;BME280;47395;42.032;-8.634;2023-02-15T03:19:06;101642.91;;;9.20;69.41
61528;BME280;47395;42.032;-8.634;2023-02-15T03:21:12;101646.88;;;9.04;69.61
61528;BME280;47395;42.032;-8.634;2023-02-15T03:23:24;101649.16;;;9.16;69.92
61528;BME280;47395;42.032;-8.634;2023-02-15T03:25:57;101648.94;;;9.24;69.39
61528;BME280;47395;42.032;-8.634;2023-02-15T03:28:13;101646.41;;;9.21;69.23
61528;BME280;47395;42.032;-8.634;2023-02-15T03:30:18;101648.16;;;9.20;69.11
61528;BME280;47395;42.032;-8.634;2023-02-15T03:32:23;101654.22;;;9.22;69.01
61528;BME280;47395;42.032;-8.634;2023-02-15T03:34:25;101657.91;;;9.17;69.52
61528;BME280;47395;42.032;-8.634;2023-02-15T03:38:58;101648.84;;;9.27;69.47
61528;BME280;47395;42.032;-8.634;2023-02-15T03:41:01;101661.06;;;9.30;68.89
61528;BME280;47395;42.032;-8.634;2023-02-15T03:43:19;101655.06;;;9.24;68.98
61528;BME280;47395;42.032;-8.634;2023-02-15T03:45:28;101664.81;;;9.21;68.76
61528;BME280;47395;42.032;-8.634;2023-02-15T03:47:36;101661.34;;;9.19;68.81
61528;BME280;47395;42.032;-8.634;2023-02-15T03:50:02;101665.97;;;9.10;69.12
61528;BME280;47395;42.032;-8.634;2023-02-15T03:52:03;101669.47;;;9.11;69.04
61528;BME280;47395;42.032;-8.634;2023-02-15T03:54:12;101671.00;;;9.18;69.36
61528;BME280;47395;42.032;-8.634;2023-02-15T03:56:39;101665.25;;;9.37;70.24
61528;BME280;47395;42.032;-8.634;2023-02-15T03:59:06;101675.22;;;9.56;68.45
61528;BME280;47395;42.032;-8.634;2023-02-15T04:01:37;101679.91;;;9.44;67.50
61528;BME280;47395;42.032;-8.634;2023-02-15T04:04:05;101681.03;;;9.37;67.82
61528;BME280;47395;42.032;-8.634;2023-02-15T04:06:08;101674.00;;;9.36;68.20
61528;BME280;47395;42.032;-8.634;2023-02-15T04:08:09;101669.53;;;9.39;68.36
61528;BME280;47395;42.032;-8.634;2023-02-15T04:10:11;101680.97;;;9.38;68.12
61528;BME280;47395;42.032;-8.634;2023-02-15T04:12:30;101680.91;;;9.40;68.11
61528;BME280;47395;42.032;-8.634;2023-02-15T04:14:31;101678.44;;;9.35;68.05
61528;BME280;47395;42.032;-8.634;2023-02-15T04:16:52;101689.97;;;9.30;67.95
61528;BME280;47395;42.032;-8.634;2023-02-15T04:18:53;101686.53;;;9.27;68.16
61528;BME280;47395;42.032;-8.634;2023-02-15T04:21:12;101687.34;;;9.30;68.71
61528;BME280;47395;42.032;-8.634;2023-02-15T04:23:32;101697.06;;;9.27;68.60
61528;BME280;47395;42.032;-8.634;2023-02-15T04:25:51;101697.97;;;9.25;68.66
61528;BME280;47395;42.032;-8.634;2023-02-15T04:27:53;101695.28;;;9.28;68.56
61528;BME280;47395;42.032;-8.634;2023-02-15T04:29:58;101699.81;;;9.23;68.67
61528;BME280;47395;42.032;-8.634;2023-02-15T04:32:01;101698.16;;;9.19;68.59
61528;BME280;47395;42.032;-8.634;2023-02-15T04:34:02;101699.97;;;9.17;68.42
61528;BME280;47395;42.032;-8.634;2023-02-15T04:36:06;101698.38;;;9.11;68.57
61528;BME280;47395;42.032;-8.634;2023-02-15T04:38:10;101702.00;;;9.07;68.74
61528;BME280;47395;42.032;-8.634;2023-02-15T04:40:17;101701.34;;;8.97;69.38
61528;BME280;47395;42.032;-8.634;2023-02-15T04:42:18;101702.28;;;8.96;69.27
61528;BME280;47395;42.032;-8.634;2023-02-15T04:44:19;101709.16;;;9.00;69.29
61528;BME280;47395;42.032;-8.634;2023-02-15T04:46:20;101710.19;;;8.94;69.14
61528;BME280;47395;42.032;-8.634;2023-02-15T04:48:22;101705.97;;;8.87;69.62
61528;BME280;47395;42.032;-8.634;2023-02-15T04:50:27;101715.50;;;8.91;69.68
61528;BME280;47395;42.032;-8.634;2023-02-15T04:52:28;101718.81;;;8.99;69.55
61528;BME280;47395;42.032;-8.634;2023-02-15T04:54:29;101719.50;;;9.06;69.64
61528;BME280;47395;42.032;-8.634;2023-02-15T04:56:33;101714.00;;;9.16;69.22
61528;BME280;47395;42.032;-8.634;2023-02-15T04:58:36;101714.56;;;9.29;69.19
61528;BME280;47395;42.032;-8.634;2023-02-15T05:00:41;101710.00;;;9.35;69.08
61528;BME280;47395;42.032;-8.634;2023-02-15T05:04:52;101710.44;;;9.82;67.83
61528;BME280;47395;42.032;-8.634;2023-02-15T05:06:53;101698.47;;;10.00;67.56
61528;BME280;47395;42.032;-8.634;2023-02-15T05:08:54;101691.19;;;10.08;67.24
61528;BME280;47395;42.032;-8.634;2023-02-15T05:10:55;101694.31;;;10.21;65.74
61528;BME280;47395;42.032;-8.634;2023-02-15T05:12:56;101697.63;;;10.28;65.87
61528;BME280;47395;42.032;-8.634;2023-02-15T05:14:57;101702.97;;;10.25;65.29
61528;BME280;47395;42.032;-8.634;2023-02-15T05:16:57;101712.63;;;10.24;65.30
61528;BME280;47395;42.032;-8.634;2023-02-15T05:19:02;101704.56;;;10.02;65.45
61528;BME280;47395;42.032;-8.634;2023-02-15T05:21:03;101708.53;;;9.87;66.28
61528;BME280;47395;42.032;-8.634;2023-02-15T05:23:04;101707.00;;;9.78;67.24
61528;BME280;47395;42.032;-8.634;2023-02-15T05:25:05;101720.41;;;9.70;66.39
61528;BME280;47395;42.032;-8.634;2023-02-15T05:27:24;101722.53;;;9.57;66.79
61528;BME280;47395;42.032;-8.634;2023-02-15T05:29:43;101736.84;;;9.47;67.17
61528;BME280;47395;42.032;-8.634;2023-02-15T05:31:44;101732.94;;;9.30;67.88
61528;BME280;47395;42.032;-8.634;2023-02-15T05:33:47;101735.00;;;9.17;68.04
61528;BME280;47395;42.032;-8.634;2023-02-15T05:35:48;101732.34;;;9.19;68.70
61528;BME280;47395;42.032;-8.634;2023-02-15T05:37:49;101739.22;;;9.24;69.08
61528;BME280;47395;42.032;-8.634;2023-02-15T05:39:50;101735.84;;;9.51;69.61
61528;BME280;47395;42.032;-8.634;2023-02-15T05:41:50;101736.16;;;9.72;68.16
61528;BME280;47395;42.032;-8.634;2023-02-15T05:43:51;101736.59;;;9.86;67.96
61528;BME280;47395;42.032;-8.634;2023-02-15T05:45:53;101732.75;;;9.98;66.56
61528;BME280;47395;42.032;-8.634;2023-02-15T05:47:54;101727.44;;;10.00;65.92
61528;BME280;47395;42.032;-8.634;2023-02-15T05:49:55;101734.44;;;10.01;66.22
61528;BME280;47395;42.032;-8.634;2023-02-15T05:51:56;101743.22;;;10.00;66.20
61528;BME280;47395;42.032;-8.634;2023-02-15T05:53:57;101740.56;;;10.01;67.32
61528;BME280;47395;42.032;-8.634;2023-02-15T05:55:58;101741.06;;;10.14;66.44
61528;BME280;47395;42.032;-8.634;2023-02-15T05:58:02;101735.50;;;10.24;66.90
61528;BME280;47395;42.032;-8.634;2023-02-15T06:00:04;101736.06;;;10.34;65.62
61528;BME280;47395;42.032;-8.634;2023-02-15T06:02:12;101752.06;;;10.27;64.91
61528;BME280;47395;42.032;-8.634;2023-02-15T06:04:13;101751.84;;;10.34;65.78
61528;BME280;47395;42.032;-8.634;2023-02-15T06:06:14;101751.72;;;10.38;64.41
61528;BME280;47395;42.032;-8.634;2023-02-15T06:08:15;101752.44;;;10.45;64.39
61528;BME280;47395;42.032;-8.634;2023-02-15T06:10:16;101750.75;;;10.41;64.54
61528;BME280;47395;42.032;-8.634;2023-02-15T06:12:17;101753.59;;;10.35;65.47
61528;BME280;47395;42.032;-8.634;2023-02-15T06:14:18;101763.69;;;10.20;65.72
61528;BME280;47395;42.032;-8.634;2023-02-15T06:16:19;101766.47;;;9.85;64.64
61528;BME280;47395;42.032;-8.634;2023-02-15T06:18:20;101778.00;;;9.81;64.76
61528;BME280;47395;42.032;-8.634;2023-02-15T06:20:21;101781.06;;;9.65;65.16
61528;BME280;47395;42.032;-8.634;2023-02-15T06:22:21;101790.34;;;9.46;65.74
61528;BME280;47395;42.032;-8.634;2023-02-15T06:24:23;101785.56;;;9.29;66.01
61528;BME280;47395;42.032;-8.634;2023-02-15T06:26:24;101792.75;;;9.22;66.09
61528;BME280;47395;42.032;-8.634;2023-02-15T06:28:25;101790.34;;;9.12;66.64
61528;BME280;47395;42.032;-8.634;2023-02-15T06:30:28;101797.59;;;9.03;67.00
61528;BME280;47395;42.032;-8.634;2023-02-15T06:32:29;101796.91;;;8.94;67.22
61528;BME280;47395;42.032;-8.634;2023-02-15T06:34:31;101795.91;;;9.00;67.63
61528;BME280;47395;42.032;-8.634;2023-02-15T06:36:32;101791.63;;;8.96;67.55
61528;BME280;47395;42.032;-8.634;2023-02-15T06:38:33;101787.19;;;8.98;67.62
61528;BME280;47395;42.032;-8.634;2023-02-15T06:40:34;101795.06;;;8.98;67.73
61528;BME280;47395;42.032;-8.634;2023-02-15T06:42:35;101798.47;;;9.03;67.49
61528;BME280;47395;42.032;-8.634;2023-02-15T06:44:35;101797.97;;;8.87;67.50
61528;BME280;47395;42.032;-8.634;2023-02-15T06:46:36;101807.56;;;8.90;67.52
61528;BME280;47395;42.032;-8.634;2023-02-15T06:48:37;101811.03;;;8.90;67.85
61528;BME280;47395;42.032;-8.634;2023-02-15T06:50:38;101817.28;;;8.84;67.66
61528;BME280;47395;42.032;-8.634;2023-02-15T06:52:39;101812.91;;;8.85;67.98
61528;BME280;47395;42.032;-8.634;2023-02-15T06:54:40;101804.16;;;8.84;68.09
61528;BME280;47395;42.032;-8.634;2023-02-15T06:56:41;101808.47;;;8.87;67.93
61528;BME280;47395;42.032;-8.634;2023-02-15T06:58:42;101810.06;;;8.94;68.30
61528;BME280;47395;42.032;-8.634;2023-02-15T07:00:43;101813.31;;;9.06;67.99
61528;BME280;47395;42.032;-8.634;2023-02-15T07:02:44;101820.78;;;9.21;67.25
61528;BME280;47395;42.032;-8.634;2023-02-15T07:04:45;101817.16;;;9.27;66.87
61528;BME280;47395;42.032;-8.634;2023-02-15T07:06:46;101816.28;;;9.26;65.87
61528;BME280;47395;42.032;-8.634;2023-02-15T07:08:47;101820.84;;;9.18;66.53
61528;BME280;47395;42.032;-8.634;2023-02-15T07:10:49;101824.56;;;9.11;66.77
61528;BME280;47395;42.032;-8.634;2023-02-15T07:12:50;101823.84;;;9.04;66.53
61528;BME280;47395;42.032;-8.634;2023-02-15T07:14:51;101830.06;;;9.01;66.76
61528;BME280;47395;42.032;-8.634;2023-02-15T07:16:53;101829.38;;;8.93;67.09
61528;BME280;47395;42.032;-8.634;2023-02-15T07:18:54;101828.84;;;8.79;67.20
61528;BME280;47395;42.032;-8.634;2023-02-15T07:20:55;101835.13;;;8.71;67.59
61528;BME280;47395;42.032;-8.634;2023-02-15T07:22:56;101849.19;;;8.69;67.89
61528;BME280;47395;42.032;-8.634;2023-02-15T07:24:57;101862.38;;;8.67;68.02
61528;BME280;47395;42.032;-8.634;2023-02-15T07:26:58;101863.34;;;8.61;67.99
61528;BME280;47395;42.032;-8.634;2023-02-15T07:28:59;101873.84;;;8.63;68.08
61528;BME280;47395;42.032;-8.634;2023-02-15T07:31:03;101869.44;;;8.65;67.98
61528;BME280;47395;42.032;-8.634;2023-02-15T07:33:04;101867.53;;;8.72;68.19
61528;BME280;47395;42.032;-8.634;2023-02-15T07:35:23;101876.19;;;8.75;68.09
61528;BME280;47395;42.032;-8.634;2023-02-15T07:37:24;101878.63;;;8.85;67.92
61528;BME280;47395;42.032;-8.634;2023-02-15T07:39:25;101878.41;;;8.94;67.19
61528;BME280;47395;42.032;-8.634;2023-02-15T07:41:26;101881.81;;;8.98;67.22
61528;BME280;47395;42.032;-8.634;2023-02-15T07:43:28;101892.31;;;8.98;66.92
61528;BME280;47395;42.032;-8.634;2023-02-15T07:45:29;101896.59;;;9.02;67.23
61528;BME280;47395;42.032;-8.634;2023-02-15T07:47:30;101898.00;;;9.17;67.60
61528;BME280;47395;42.032;-8.634;2023-02-15T07:49:31;101901.34;;;9.24;66.47
61528;BME280;47395;42.032;-8.634;2023-02-15T07:51:32;101910.72;;;9.36;66.08
61528;BME280;47395;42.032;-8.634;2023-02-15T07:53:34;101913.34;;;9.36;65.74
61528;BME280;47395;42.032;-8.634;2023-02-15T07:55:35;101917.53;;;9.45;65.65
61528;BME280;47395;42.032;-8.634;2023-02-15T07:57:36;101918.28;;;9.48;65.55
61528;BME280;47395;42.032;-8.634;2023-02-15T07:59:37;101910.16;;;9.58;65.62
61528;BME280;47395;42.032;-8.634;2023-02-15T08:01:38;101922.47;;;9.57;65.41
61528;BME280;47395;42.032;-8.634;2023-02-15T08:03:39;101923.84;;;9.72;64.97
61528;BME280;47395;42.032;-8.634;2023-02-15T08:05:42;101928.88;;;9.82;64.78
61528;BME280;47395;42.032;-8.634;2023-02-15T08:07:43;101932.03;;;9.95;64.36
61528;BME280;47395;42.032;-8.634;2023-02-15T08:09:47;101940.34;;;10.12;64.33
61528;BME280;47395;42.032;-8.634;2023-02-15T08:11:48;101940.75;;;10.30;63.90
61528;BME280;47395;42.032;-8.634;2023-02-15T08:13:53;101941.25;;;10.44;63.69
61528;BME280;47395;42.032;-8.634;2023-02-15T08:15:54;101944.38;;;10.59;63.34
61528;BME280;47395;42.032;-8.634;2023-02-15T08:17:55;101946.44;;;10.78;62.44
61528;BME280;47395;42.032;-8.634;2023-02-15T08:19:56;101945.06;;;10.94;62.93
61528;BME280;47395;42.032;-8.634;2023-02-15T08:22:02;101958.44;;;11.17;62.44
61528;BME280;47395;42.032;-8.634;2023-02-15T08:24:05;101944.25;;;11.48;60.30
61528;BME280;47395;42.032;-8.634;2023-02-15T08:26:06;101948.72;;;11.73;60.28
61528;BME280;47395;42.032;-8.634;2023-02-15T08:28:07;101951.06;;;11.82;59.11
61528;BME280;47395;42.032;-8.634;2023-02-15T08:30:09;101962.81;;;11.99;59.75
61528;BME280;47395;42.032;-8.634;2023-02-15T08:32:11;101956.81;;;12.21;58.94
61528;BME280;47395;42.032;-8.634;2023-02-15T08:34:17;101958.81;;;11.87;58.32
61528;BME280;47395;42.032;-8.634;2023-02-15T08:36:21;101963.22;;;11.86;58.97
61528;BME280;47395;42.032;-8.634;2023-02-15T08:38:23;101963.06;;;12.90;56.70
61528;BME280;47395;42.032;-8.634;2023-02-15T08:40:24;101959.47;;;14.22;52.90
61528;BME280;47395;42.032;-8.634;2023-02-15T08:42:25;101955.50;;;15.64;49.93
61528;BME280;47395;42.032;-8.634;2023-02-15T08:44:27;101955.91;;;16.43;46.41
61528;BME280;47395;42.032;-8.634;2023-02-15T08:46:30;101964.84;;;17.39;44.51
61528;BME280;47395;42.032;-8.634;2023-02-15T08:48:31;101965.28;;;17.78;43.06
61528;BME280;47395;42.032;-8.634;2023-02-15T08:50:32;101970.06;;;18.74;41.08
61528;BME280;47395;42.032;-8.634;2023-02-15T08:52:33;101966.00;;;18.69;41.00
61528;BME280;47395;42.032;-8.634;2023-02-15T08:54:34;101969.09;;;18.90;39.61
61528;BME280;47395;42.032;-8.634;2023-02-15T08:56:37;101971.88;;;19.84;38.50
61528;BME280;47395;42.032;-8.634;2023-02-15T08:58:39;101968.81;;;20.16;37.62
61528;BME280;47395;42.032;-8.634;2023-02-15T09:00:39;101977.09;;;19.32;38.92
61528;BME280;47395;42.032;-8.634;2023-02-15T09:02:43;101965.38;;;20.01;38.13
61528;BME280;47395;42.032;-8.634;2023-02-15T09:04:44;101980.63;;;19.86;38.27
61528;BME280;47395;42.032;-8.634;2023-02-15T09:06:47;101978.09;;;21.00;36.98
61528;BME280;47395;42.032;-8.634;2023-02-15T09:08:51;101974.28;;;21.51;35.22
61528;BME280;47395;42.032;-8.634;2023-02-15T09:10:51;101973.97;;;21.56;35.29
61528;BME280;47395;42.032;-8.634;2023-02-15T09:12:52;101973.78;;;21.10;35.32
61528;BME280;47395;42.032;-8.634;2023-02-15T09:14:53;101979.31;;;21.56;35.56
61528;BME280;47395;42.032;-8.634;2023-02-15T09:16:54;101978.06;;;21.49;35.39
61528;BME280;47395;42.032;-8.634;2023-02-15T09:18:56;101982.13;;;21.55;36.32
61528;BME280;47395;42.032;-8.634;2023-02-15T09:21:05;101984.25;;;21.13;36.48
61528;BME280;47395;42.032;-8.634;2023-02-15T09:23:06;101983.75;;;22.16;34.89
61528;BME280;47395;42.032;-8.634;2023-02-15T09:25:07;101984.06;;;21.88;34.55
61528;BME280;47395;42.032;-8.634;2023-02-15T09:27:08;101982.28;;;22.35;34.14
61528;BME280;47395;42.032;-8.634;2023-02-15T09:29:10;101990.56;;;22.32;33.14
61528;BME280;47395;42.032;-8.634;2023-02-15T09:31:19;101985.72;;;22.25;34.16
61528;BME280;47395;42.032;-8.634;2023-02-15T09:33:20;101992.41;;;22.88;32.92
61528;BME280;47395;42.032;-8.634;2023-02-15T09:35:21;101985.97;;;22.68;33.17
61528;BME280;47395;42.032;-8.634;2023-02-15T09:37:21;101988.03;;;22.87;33.80
61528;BME280;47395;42.032;-8.634;2023-02-15T09:39:24;101995.34;;;23.29;32.99
61528;BME280;47395;42.032;-8.634;2023-02-15T09:48:58;102012.53;;;24.76;30.19
61528;BME280;47395;42.032;-8.634;2023-02-15T09:51:48;102018.03;;;25.55;29.57
61528;BME280;47395;42.032;-8.634;2023-02-15T09:59:16;102033.25;;;25.66;29.24
61528;BME280;47395;42.032;-8.634;2023-02-15T10:01:38;102030.00;;;26.40;28.65
61528;BME280;47395;42.032;-8.634;2023-02-15T10:04:22;102034.31;;;27.35;26.88
61528;BME280;47395;42.032;-8.634;2023-02-15T10:12:52;102037.44;;;28.64;25.35
61528;BME280;47395;42.032;-8.634;2023-02-15T10:17:41;102035.59;;;29.50;24.70
61528;BME280;47395;42.032;-8.634;2023-02-15T10:20:08;102034.06;;;28.71;25.39
61528;BME280;47395;42.032;-8.634;2023-02-15T10:27:16;102037.84;;;28.17;25.52
61528;BME280;47395;42.032;-8.634;2023-02-15T10:29:55;102034.06;;;28.71;25.64
61528;BME280;47395;42.032;-8.634;2023-02-15T10:32:30;102041.94;;;28.56;25.51
61528;BME280;47395;42.032;-8.634;2023-02-15T10:34:53;102044.47;;;28.92;24.73
61528;BME280;47395;42.032;-8.634;2023-02-15T10:37:06;102052.19;;;28.35;25.94
61528;BME280;47395;42.032;-8.634;2023-02-15T10:44:40;102057.84;;;29.70;24.12
61528;BME280;47395;42.032;-8.634;2023-02-15T10:47:00;102055.38;;;30.33;23.16
61528;BME280;47395;42.032;-8.634;2023-02-15T10:49:42;102057.13;;;30.18;23.50
61528;BME280;47395;42.032;-8.634;2023-02-15T10:52:19;102060.03;;;31.28;22.48
61528;BME280;47395;42.032;-8.634;2023-02-15T10:57:04;102063.75;;;32.73;21.19
61528;BME280;47395;42.032;-8.634;2023-02-15T11:02:17;102075.09;;;34.01;19.59
61528;BME280;47395;42.032;-8.634;2023-02-15T11:04:51;102076.31;;;34.20;19.38
61528;BME280;47395;42.032;-8.634;2023-02-15T11:06:57;102075.88;;;34.23;19.00
61528;BME280;47395;42.032;-8.634;2023-02-15T11:09:02;102082.25;;;34.02;19.47
61528;BME280;47395;42.032;-8.634;2023-02-15T11:11:09;102081.50;;;33.36;20.16
61528;BME280;47395;42.032;-8.634;2023-02-15T11:13:18;102084.59;;;33.32;19.82
61528;BME280;47395;42.032;-8.634;2023-02-15T11:15:55;102089.56;;;34.23;18.97
61528;BME280;47395;42.032;-8.634;2023-02-15T11:18:04;102083.03;;;34.17;19.54
61528;BME280;47395;42.032;-8.634;2023-02-15T11:20:30;102087.41;;;35.02;18.07
61528;BME280;47395;42.032;-8.634;2023-02-15T11:22:34;102090.69;;;34.71;18.48
61528;BME280;47395;42.032;-8.634;2023-02-15T11:24:45;102086.22;;;34.63;18.60
61528;BME280;47395;42.032;-8.634;2023-02-15T11:27:25;102087.75;;;34.79;18.50
61528;BME280;47395;42.032;-8.634;2023-02-15T11:29:44;102079.81;;;34.98;18.33
61528;BME280;47395;42.032;-8.634;2023-02-15T11:31:57;102081.44;;;34.01;19.41
61528;BME280;47395;42.032;-8.634;2023-02-15T11:34:03;102078.22;;;34.26;19.49
61528;BME280;47395;42.032;-8.634;2023-02-15T11:36:11;102088.53;;;33.95;20.14
61528;BME280;47395;42.032;-8.634;2023-02-15T11:38:19;102082.50;;;34.07;19.90
61528;BME280;47395;42.032;-8.634;2023-02-15T11:40:34;102085.06;;;34.86;18.54
61528;BME280;47395;42.032;-8.634;2023-02-15T11:42:35;102078.22;;;33.25;19.71
61528;BME280;47395;42.032;-8.634;2023-02-15T11:44:54;102076.50;;;32.50;20.87
61528;BME280;47395;42.032;-8.634;2023-02-15T11:46:57;102075.63;;;33.17;20.42
61528;BME280;47395;42.032;-8.634;2023-02-15T11:48:58;102064.56;;;33.47;19.80
61528;BME280;47395;42.032;-8.634;2023-02-15T11:51:00;102073.63;;;33.69;20.03
61528;BME280;47395;42.032;-8.634;2023-02-15T11:53:07;102069.56;;;33.00;19.89
61528;BME280;47395;42.032;-8.634;2023-02-15T11:55:15;102065.41;;;33.47;19.94
61528;BME280;47395;42.032;-8.634;2023-02-15T11:57:39;102060.38;;;33.73;20.46
61528;BME280;47395;42.032;-8.634;2023-02-15T11:59:49;102058.97;;;33.55;19.96